sensor_id;sensor_type;location;lat;lon;timestamp;P1;durP1;ratioP1;P2;durP2;ratioP2
79751;SDS011;69234;47.446;21.636;2023-10-13T00:00:09;14.10;;;14.03;;
79751;SDS011;69234;47.446;21.636;2023-10-13T00:00:56;14.03;;;13.93;;
79751;SDS011;69234;47.446;21.636;2023-10-13T00:01:30;13.83;;;13.70;;
79751;SDS011;69234;47.446;21.636;2023-10-13T00:02:01;14.23;;;14.23;;
79751;SDS011;69234;47.446;21.636;2023-10-13T00:02:34;13.93;;;13.77;;
79751;SDS011;69234;47.446;21.636;2023-10-13T00:03:06;14.20;;;14.17;;
79751;SDS011;69234;47.446;21.636;2023-10-13T00:03:45;14.33;;;14.33;;
79751;SDS011;69234;47.446;21.636;2023-10-13T00:04:15;13.80;;;13.77;;
79751;SDS011;69234;47.446;21.636;2023-10-13T00:04:46;14.10;;;14.03;;
79751;SDS011;69234;47.446;21.636;2023-10-13T00:05:17;13.83;;;13.70;;
79751;SDS011;69234;47.446;21.636;2023-10-13T00:05:49;14.60;;;14.43;;
79751;SDS011;69234;47.446;21.636;2023-10-13T00:06:22;14.13;;;14.00;;
79751;SDS011;69234;47.446;21.636;2023-10-13T00:06:56;15.13;;;15.00;;
79751;SDS011;69234;47.446;21.636;2023-10-13T00:07:27;14.63;;;14.53;;
79751;SDS011;69234;47.446;21.636;2023-10-13T00:08:02;13.83;;;13.73;;
79751;SDS011;69234;47.446;21.636;2023-10-13T00:08:34;14.50;;;14.40;;
79751;SDS011;69234;47.446;21.636;2023-10-13T00:09:06;14.63;;;14.50;;
79751;SDS011;69234;47.446;21.636;2023-10-13T00:09:44;14.13;;;14.07;;
79751;SDS011;69234;47.446;21.636;2023-10-13T00:10:15;14.27;;;14.17;;
79751;SDS011;69234;47.446;21.636;2023-10-13T00:10:48;14.57;;;14.37;;
79751;SDS011;69234;47.446;21.636;2023-10-13T00:11:19;14.73;;;14.40;;
79751;SDS011;69234;47.446;21.636;2023-10-13T00:11:52;13.47;;;13.23;;
79751;SDS011;69234;47.446;21.636;2023-10-13T00:12:24;12.93;;;12.73;;
79751;SDS011;69234;47.446;21.636;2023-10-13T00:12:55;14.13;;;13.97;;
79751;SDS011;69234;47.446;21.636;2023-10-13T00:13:36;14.20;;;14.10;;
79751;SDS011;69234;47.446;21.636;2023-10-13T00:14:20;14.47;;;14.27;;
79751;SDS011;69234;47.446;21.636;2023-10-13T00:14:52;13.77;;;13.53;;
79751;SDS011;69234;47.446;21.636;2023-10-13T00:15:24;14.47;;;14.17;;
79751;SDS011;69234;47.446;21.636;2023-10-13T00:15:58;14.27;;;14.07;;
79751;SDS011;69234;47.446;21.636;2023-10-13T00:16:29;14.33;;;14.10;;
79751;SDS011;69234;47.446;21.636;2023-10-13T00:17:01;13.67;;;13.50;;
79751;SDS011;69234;47.446;21.636;2023-10-13T00:17:34;13.77;;;13.57;;
79751;SDS011;69234;47.446;21.636;2023-10-13T00:18:08;13.27;;;13.10;;
79751;SDS011;69234;47.446;21.636;2023-10-13T00:18:42;13.40;;;13.20;;
79751;SDS011;69234;47.446;21.636;2023-10-13T00:19:14;12.67;;;12.50;;
79751;SDS011;69234;47.446;21.636;2023-10-13T00:19:45;13.40;;;13.37;;
79751;SDS011;69234;47.446;21.636;2023-10-13T00:20:17;13.53;;;13.47;;
79751;SDS011;69234;47.446;21.636;2023-10-13T00:20:59;14.13;;;13.93;;
79751;SDS011;69234;47.446;21.636;2023-10-13T00:21:42;13.13;;;12.97;;
79751;SDS011;69234;47.446;21.636;2023-10-13T00:22:14;13.90;;;13.70;;
79751;SDS011;69234;47.446;21.636;2023-10-13T00:22:49;13.80;;;13.53;;
79751;SDS011;69234;47.446;21.636;2023-10-13T00:23:20;14.03;;;13.80;;
79751;SDS011;69234;47.446;21.636;2023-10-13T00:23:51;13.93;;;13.73;;
79751;SDS011;69234;47.446;21.636;2023-10-13T00:24:22;13.67;;;13.47;;
79751;SDS011;69234;47.446;21.636;2023-10-13T00:24:59;14.17;;;14.00;;
79751;SDS011;69234;47.446;21.636;2023-10-13T00:25:33;14.20;;;14.03;;
79751;SDS011;69234;47.446;21.636;2023-10-13T00:26:20;13.97;;;13.77;;
79751;SDS011;69234;47.446;21.636;2023-10-13T00:26:57;13.83;;;13.57;;
79751;SDS011;69234;47.446;21.636;2023-10-13T00:27:28;13.37;;;13.07;;
79751;SDS011;69234;47.446;21.636;2023-10-13T00:28:06;13.23;;;13.00;;
79751;SDS011;69234;47.446;21.636;2023-10-13T00:28:40;13.27;;;13.07;;
79751;SDS011;69234;47.446;21.636;2023-10-13T00:29:16;13.57;;;13.43;;
79751;SDS011;69234;47.446;21.636;2023-10-13T00:29:47;13.13;;;12.93;;
79751;SDS011;69234;47.446;21.636;2023-10-13T00:30:20;13.30;;;13.20;;
79751;SDS011;69234;47.446;21.636;2023-10-13T00:31:03;13.37;;;13.20;;
79751;SDS011;69234;47.446;21.636;2023-10-13T00:31:44;12.67;;;12.67;;
79751;SDS011;69234;47.446;21.636;2023-10-13T00:32:18;12.63;;;12.63;;
79751;SDS011;69234;47.446;21.636;2023-10-13T00:32:57;12.93;;;12.80;;
79751;SDS011;69234;47.446;21.636;2023-10-13T00:33:28;12.73;;;12.60;;
79751;SDS011;69234;47.446;21.636;2023-10-13T00:34:02;12.37;;;12.17;;
79751;SDS011;69234;47.446;21.636;2023-10-13T00:34:48;13.37;;;13.13;;
79751;SDS011;69234;47.446;21.636;2023-10-13T00:35:28;13.80;;;13.60;;
79751;SDS011;69234;47.446;21.636;2023-10-13T00:36:06;13.17;;;13.03;;
79751;SDS011;69234;47.446;21.636;2023-10-13T00:36:38;12.33;;;12.33;;
79751;SDS011;69234;47.446;21.636;2023-10-13T00:37:18;12.83;;;12.83;;
79751;SDS011;69234;47.446;21.636;2023-10-13T00:37:52;13.10;;;13.10;;
79751;SDS011;69234;47.446;21.636;2023-10-13T00:38:24;13.43;;;13.43;;
79751;SDS011;69234;47.446;21.636;2023-10-13T00:38:57;13.17;;;13.07;;
79751;SDS011;69234;47.446;21.636;2023-10-13T00:39:29;12.07;;;12.03;;
79751;SDS011;69234;47.446;21.636;2023-10-13T00:40:00;11.90;;;11.90;;
79751;SDS011;69234;47.446;21.636;2023-10-13T00:40:39;12.73;;;12.60;;
79751;SDS011;69234;47.446;21.636;2023-10-13T00:41:10;13.17;;;13.10;;
79751;SDS011;69234;47.446;21.636;2023-10-13T00:41:48;12.90;;;12.73;;
79751;SDS011;69234;47.446;21.636;2023-10-13T00:42:22;13.40;;;13.20;;
79751;SDS011;69234;47.446;21.636;2023-10-13T00:43:16;12.67;;;12.50;;
79751;SDS011;69234;47.446;21.636;2023-10-13T00:43:50;13.07;;;12.97;;
79751;SDS011;69234;47.446;21.636;2023-10-13T00:44:34;12.70;;;12.60;;
79751;SDS011;69234;47.446;21.636;2023-10-13T00:45:12;12.37;;;12.27;;
79751;SDS011;69234;47.446;21.636;2023-10-13T00:46:43;12.47;;;12.27;;
79751;SDS011;69234;47.446;21.636;2023-10-13T00:47:16;12.70;;;12.47;;
79751;SDS011;69234;47.446;21.636;2023-10-13T00:48:07;13.37;;;13.17;;
79751;SDS011;69234;47.446;21.636;2023-10-13T00:48:41;13.90;;;13.77;;
79751;SDS011;69234;47.446;21.636;2023-10-13T00:49:16;12.80;;;12.67;;
79751;SDS011;69234;47.446;21.636;2023-10-13T00:49:46;12.90;;;12.77;;
79751;SDS011;69234;47.446;21.636;2023-10-13T00:50:18;12.93;;;12.77;;
79751;SDS011;69234;47.446;21.636;2023-10-13T00:50:49;12.73;;;12.53;;
79751;SDS011;69234;47.446;21.636;2023-10-13T00:51:20;12.83;;;12.57;;
79751;SDS011;69234;47.446;21.636;2023-10-13T00:52:11;12.13;;;11.90;;
79751;SDS011;69234;47.446;21.636;2023-10-13T00:52:43;13.17;;;12.90;;
79751;SDS011;69234;47.446;21.636;2023-10-13T00:53:21;12.70;;;12.57;;
79751;SDS011;69234;47.446;21.636;2023-10-13T00:53:53;12.83;;;12.80;;
79751;SDS011;69234;47.446;21.636;2023-10-13T00:54:24;12.80;;;12.67;;
79751;SDS011;69234;47.446;21.636;2023-10-13T00:54:57;13.10;;;13.07;;
79751;SDS011;69234;47.446;21.636;2023-10-13T00:55:30;12.73;;;12.63;;
79751;SDS011;69234;47.446;21.636;2023-10-13T00:56:03;12.03;;;11.90;;
79751;SDS011;69234;47.446;21.636;2023-10-13T00:56:41;12.40;;;12.23;;
79751;SDS011;69234;47.446;21.636;2023-10-13T00:57:39;12.60;;;12.50;;
79751;SDS011;69234;47.446;21.636;2023-10-13T00:58:11;13.10;;;12.97;;
79751;SDS011;69234;47.446;21.636;2023-10-13T00:58:42;12.73;;;12.57;;
79751;SDS011;69234;47.446;21.636;2023-10-13T00:59:14;11.77;;;11.60;;
79751;SDS011;69234;47.446;21.636;2023-10-13T00:59:46;12.37;;;12.30;;
79751;SDS011;69234;47.446;21.636;2023-10-13T01:00:19;12.10;;;12.10;;
79751;SDS011;69234;47.446;21.636;2023-10-13T01:00:54;12.53;;;12.50;;
79751;SDS011;69234;47.446;21.636;2023-10-13T01:01:27;12.17;;;12.07;;
79751;SDS011;69234;47.446;21.636;2023-10-13T01:02:04;11.87;;;11.80;;
79751;SDS011;69234;47.446;21.636;2023-10-13T01:02:54;11.47;;;11.37;;
79751;SDS011;69234;47.446;21.636;2023-10-13T01:03:36;11.90;;;11.90;;
79751;SDS011;69234;47.446;21.636;2023-10-13T01:04:08;12.00;;;11.97;;
79751;SDS011;69234;47.446;21.636;2023-10-13T01:04:45;12.77;;;12.73;;
79751;SDS011;69234;47.446;21.636;2023-10-13T01:05:17;12.30;;;12.30;;
79751;SDS011;69234;47.446;21.636;2023-10-13T01:05:50;12.10;;;12.07;;
79751;SDS011;69234;47.446;21.636;2023-10-13T01:06:25;12.80;;;12.80;;
79751;SDS011;69234;47.446;21.636;2023-10-13T01:06:58;12.43;;;12.37;;
79751;SDS011;69234;47.446;21.636;2023-10-13T01:07:30;11.47;;;11.37;;
79751;SDS011;69234;47.446;21.636;2023-10-13T01:08:01;11.60;;;11.47;;
79751;SDS011;69234;47.446;21.636;2023-10-13T01:08:32;11.97;;;11.87;;
79751;SDS011;69234;47.446;21.636;2023-10-13T01:09:09;12.40;;;12.33;;
79751;SDS011;69234;47.446;21.636;2023-10-13T01:09:43;12.87;;;12.83;;
79751;SDS011;69234;47.446;21.636;2023-10-13T01:10:17;12.83;;;12.73;;
79751;SDS011;69234;47.446;21.636;2023-10-13T01:10:49;12.47;;;12.33;;
79751;SDS011;69234;47.446;21.636;2023-10-13T01:11:20;12.33;;;12.17;;
79751;SDS011;69234;47.446;21.636;2023-10-13T01:11:54;12.13;;;12.03;;
79751;SDS011;69234;47.446;21.636;2023-10-13T01:12:25;11.67;;;11.63;;
79751;SDS011;69234;47.446;21.636;2023-10-13T01:12:56;11.73;;;11.70;;
79751;SDS011;69234;47.446;21.636;2023-10-13T01:13:29;11.77;;;11.70;;
79751;SDS011;69234;47.446;21.636;2023-10-13T01:14:01;11.20;;;11.10;;
79751;SDS011;69234;47.446;21.636;2023-10-13T01:14:34;11.37;;;11.37;;
79751;SDS011;69234;47.446;21.636;2023-10-13T01:15:06;11.80;;;11.80;;
79751;SDS011;69234;47.446;21.636;2023-10-13T01:15:41;11.67;;;11.67;;
79751;SDS011;69234;47.446;21.636;2023-10-13T01:16:12;11.73;;;11.67;;
79751;SDS011;69234;47.446;21.636;2023-10-13T01:16:43;12.13;;;12.13;;
79751;SDS011;69234;47.446;21.636;2023-10-13T01:17:22;11.90;;;11.90;;
79751;SDS011;69234;47.446;21.636;2023-10-13T01:17:54;12.03;;;11.93;;
79751;SDS011;69234;47.446;21.636;2023-10-13T01:18:26;12.73;;;12.63;;
79751;SDS011;69234;47.446;21.636;2023-10-13T01:18:58;12.07;;;12.03;;
79751;SDS011;69234;47.446;21.636;2023-10-13T01:19:30;11.73;;;11.73;;
79751;SDS011;69234;47.446;21.636;2023-10-13T01:20:13;11.47;;;11.40;;
79751;SDS011;69234;47.446;21.636;2023-10-13T01:20:50;11.87;;;11.83;;
79751;SDS011;69234;47.446;21.636;2023-10-13T01:21:29;12.27;;;12.27;;
79751;SDS011;69234;47.446;21.636;2023-10-13T01:22:00;12.27;;;12.23;;
79751;SDS011;69234;47.446;21.636;2023-10-13T01:22:35;11.93;;;11.87;;
79751;SDS011;69234;47.446;21.636;2023-10-13T01:23:10;11.80;;;11.77;;
79751;SDS011;69234;47.446;21.636;2023-10-13T01:23:48;12.37;;;12.37;;
79751;SDS011;69234;47.446;21.636;2023-10-13T01:24:21;11.63;;;11.63;;
79751;SDS011;69234;47.446;21.636;2023-10-13T01:24:54;10.97;;;10.97;;
79751;SDS011;69234;47.446;21.636;2023-10-13T01:25:34;12.10;;;12.10;;
79751;SDS011;69234;47.446;21.636;2023-10-13T01:26:05;11.47;;;11.40;;
79751;SDS011;69234;47.446;21.636;2023-10-13T01:26:36;11.90;;;11.73;;
79751;SDS011;69234;47.446;21.636;2023-10-13T01:27:11;12.03;;;11.87;;
79751;SDS011;69234;47.446;21.636;2023-10-13T01:27:49;12.23;;;12.07;;
79751;SDS011;69234;47.446;21.636;2023-10-13T01:28:22;11.70;;;11.60;;
79751;SDS011;69234;47.446;21.636;2023-10-13T01:28:57;11.83;;;11.83;;
79751;SDS011;69234;47.446;21.636;2023-10-13T01:29:28;11.70;;;11.70;;
79751;SDS011;69234;47.446;21.636;2023-10-13T01:30:00;11.83;;;11.73;;
79751;SDS011;69234;47.446;21.636;2023-10-13T01:30:40;11.27;;;11.27;;
79751;SDS011;69234;47.446;21.636;2023-10-13T01:31:11;12.30;;;12.30;;
79751;SDS011;69234;47.446;21.636;2023-10-13T01:31:44;11.83;;;11.83;;
79751;SDS011;69234;47.446;21.636;2023-10-13T01:32:17;11.77;;;11.77;;
79751;SDS011;69234;47.446;21.636;2023-10-13T01:32:50;12.17;;;12.17;;
79751;SDS011;69234;47.446;21.636;2023-10-13T01:33:23;11.47;;;11.47;;
79751;SDS011;69234;47.446;21.636;2023-10-13T01:33:58;11.27;;;11.20;;
79751;SDS011;69234;47.446;21.636;2023-10-13T01:34:29;11.57;;;11.53;;
79751;SDS011;69234;47.446;21.636;2023-10-13T01:35:03;11.67;;;11.67;;
79751;SDS011;69234;47.446;21.636;2023-10-13T01:35:37;11.27;;;11.17;;
79751;SDS011;69234;47.446;21.636;2023-10-13T01:36:28;11.37;;;11.33;;
79751;SDS011;69234;47.446;21.636;2023-10-13T01:37:05;12.27;;;12.27;;
79751;SDS011;69234;47.446;21.636;2023-10-13T01:37:36;12.37;;;12.37;;
79751;SDS011;69234;47.446;21.636;2023-10-13T01:38:08;12.43;;;12.43;;
79751;SDS011;69234;47.446;21.636;2023-10-13T01:38:39;11.03;;;11.03;;
79751;SDS011;69234;47.446;21.636;2023-10-13T01:39:12;11.83;;;11.77;;
79751;SDS011;69234;47.446;21.636;2023-10-13T01:39:47;12.33;;;12.23;;
79751;SDS011;69234;47.446;21.636;2023-10-13T01:40:19;12.43;;;12.33;;
79751;SDS011;69234;47.446;21.636;2023-10-13T01:40:50;12.40;;;12.30;;
79751;SDS011;69234;47.446;21.636;2023-10-13T01:41:22;12.43;;;12.37;;
79751;SDS011;69234;47.446;21.636;2023-10-13T01:41:54;11.87;;;11.77;;
79751;SDS011;69234;47.446;21.636;2023-10-13T01:42:25;11.20;;;11.10;;
79751;SDS011;69234;47.446;21.636;2023-10-13T01:42:58;12.30;;;12.23;;
79751;SDS011;69234;47.446;21.636;2023-10-13T01:43:29;12.73;;;12.53;;
79751;SDS011;69234;47.446;21.636;2023-10-13T01:44:00;12.40;;;12.17;;
79751;SDS011;69234;47.446;21.636;2023-10-13T01:44:32;11.80;;;11.63;;
79751;SDS011;69234;47.446;21.636;2023-10-13T01:45:03;11.87;;;11.80;;
79751;SDS011;69234;47.446;21.636;2023-10-13T01:45:37;13.17;;;13.10;;
79751;SDS011;69234;47.446;21.636;2023-10-13T01:46:19;13.13;;;13.00;;
79751;SDS011;69234;47.446;21.636;2023-10-13T01:46:52;13.03;;;12.87;;
79751;SDS011;69234;47.446;21.636;2023-10-13T01:47:23;13.07;;;12.87;;
79751;SDS011;69234;47.446;21.636;2023-10-13T01:47:54;13.83;;;13.63;;
79751;SDS011;69234;47.446;21.636;2023-10-13T01:48:27;13.50;;;13.37;;
79751;SDS011;69234;47.446;21.636;2023-10-13T01:49:02;12.67;;;12.47;;
79751;SDS011;69234;47.446;21.636;2023-10-13T01:49:34;12.27;;;12.07;;
79751;SDS011;69234;47.446;21.636;2023-10-13T01:50:31;12.23;;;12.03;;
79751;SDS011;69234;47.446;21.636;2023-10-13T01:51:02;12.47;;;12.23;;
79751;SDS011;69234;47.446;21.636;2023-10-13T01:51:35;12.23;;;12.10;;
79751;SDS011;69234;47.446;21.636;2023-10-13T01:52:09;12.43;;;12.43;;
79751;SDS011;69234;47.446;21.636;2023-10-13T01:52:45;12.97;;;12.93;;
79751;SDS011;69234;47.446;21.636;2023-10-13T01:53:17;12.30;;;12.30;;
79751;SDS011;69234;47.446;21.636;2023-10-13T01:53:49;12.63;;;12.63;;
79751;SDS011;69234;47.446;21.636;2023-10-13T01:54:26;12.83;;;12.83;;
79751;SDS011;69234;47.446;21.636;2023-10-13T01:54:58;12.80;;;12.80;;
79751;SDS011;69234;47.446;21.636;2023-10-13T01:55:31;13.13;;;13.13;;
79751;SDS011;69234;47.446;21.636;2023-10-13T01:56:09;12.70;;;12.70;;
79751;SDS011;69234;47.446;21.636;2023-10-13T01:56:40;12.00;;;12.00;;
79751;SDS011;69234;47.446;21.636;2023-10-13T01:57:14;13.10;;;13.10;;
79751;SDS011;69234;47.446;21.636;2023-10-13T01:57:47;12.57;;;12.53;;
79751;SDS011;69234;47.446;21.636;2023-10-13T01:58:18;12.53;;;12.43;;
79751;SDS011;69234;47.446;21.636;2023-10-13T01:58:53;12.77;;;12.60;;
79751;SDS011;69234;47.446;21.636;2023-10-13T01:59:24;12.77;;;12.77;;
79751;SDS011;69234;47.446;21.636;2023-10-13T01:59:57;13.43;;;13.40;;
79751;SDS011;69234;47.446;21.636;2023-10-13T02:00:43;13.20;;;13.17;;
79751;SDS011;69234;47.446;21.636;2023-10-13T02:01:15;12.97;;;12.83;;
79751;SDS011;69234;47.446;21.636;2023-10-13T02:01:56;12.50;;;12.27;;
79751;SDS011;69234;47.446;21.636;2023-10-13T02:02:30;12.90;;;12.60;;
79751;SDS011;69234;47.446;21.636;2023-10-13T02:03:01;12.80;;;12.50;;
79751;SDS011;69234;47.446;21.636;2023-10-13T02:03:32;12.50;;;12.30;;
79751;SDS011;69234;47.446;21.636;2023-10-13T02:04:04;13.30;;;13.10;;
79751;SDS011;69234;47.446;21.636;2023-10-13T02:04:35;12.57;;;12.37;;
79751;SDS011;69234;47.446;21.636;2023-10-13T02:05:07;12.83;;;12.80;;
79751;SDS011;69234;47.446;21.636;2023-10-13T02:05:38;12.57;;;12.50;;
79751;SDS011;69234;47.446;21.636;2023-10-13T02:06:10;13.60;;;13.50;;
79751;SDS011;69234;47.446;21.636;2023-10-13T02:06:47;14.00;;;13.80;;
79751;SDS011;69234;47.446;21.636;2023-10-13T02:07:18;13.23;;;13.03;;
79751;SDS011;69234;47.446;21.636;2023-10-13T02:07:50;12.70;;;12.50;;
79751;SDS011;69234;47.446;21.636;2023-10-13T02:08:22;12.80;;;12.60;;
79751;SDS011;69234;47.446;21.636;2023-10-13T02:08:53;12.93;;;12.73;;
79751;SDS011;69234;47.446;21.636;2023-10-13T02:09:27;13.60;;;13.37;;
79751;SDS011;69234;47.446;21.636;2023-10-13T02:10:00;12.83;;;12.67;;
79751;SDS011;69234;47.446;21.636;2023-10-13T02:10:37;12.63;;;12.63;;
79751;SDS011;69234;47.446;21.636;2023-10-13T02:11:13;11.70;;;11.70;;
79751;SDS011;69234;47.446;21.636;2023-10-13T02:11:48;12.53;;;12.53;;
79751;SDS011;69234;47.446;21.636;2023-10-13T02:12:24;12.93;;;12.90;;
79751;SDS011;69234;47.446;21.636;2023-10-13T02:13:15;12.30;;;12.13;;
79751;SDS011;69234;47.446;21.636;2023-10-13T02:13:48;12.37;;;12.30;;
79751;SDS011;69234;47.446;21.636;2023-10-13T02:14:23;13.40;;;13.23;;
79751;SDS011;69234;47.446;21.636;2023-10-13T02:14:56;12.60;;;12.47;;
79751;SDS011;69234;47.446;21.636;2023-10-13T02:15:31;12.10;;;11.93;;
79751;SDS011;69234;47.446;21.636;2023-10-13T02:16:05;12.07;;;12.00;;
79751;SDS011;69234;47.446;21.636;2023-10-13T02:16:37;12.07;;;11.90;;
79751;SDS011;69234;47.446;21.636;2023-10-13T02:17:09;11.97;;;11.77;;
79751;SDS011;69234;47.446;21.636;2023-10-13T02:17:43;13.53;;;13.33;;
79751;SDS011;69234;47.446;21.636;2023-10-13T02:18:15;12.90;;;12.70;;
79751;SDS011;69234;47.446;21.636;2023-10-13T02:18:57;12.30;;;12.20;;
79751;SDS011;69234;47.446;21.636;2023-10-13T02:19:34;11.97;;;11.97;;
79751;SDS011;69234;47.446;21.636;2023-10-13T02:20:05;12.57;;;12.53;;
79751;SDS011;69234;47.446;21.636;2023-10-13T02:20:46;12.37;;;12.30;;
79751;SDS011;69234;47.446;21.636;2023-10-13T02:21:24;12.70;;;12.63;;
79751;SDS011;69234;47.446;21.636;2023-10-13T02:22:02;13.07;;;13.00;;
79751;SDS011;69234;47.446;21.636;2023-10-13T02:22:34;12.50;;;12.43;;
79751;SDS011;69234;47.446;21.636;2023-10-13T02:23:07;13.43;;;13.17;;
79751;SDS011;69234;47.446;21.636;2023-10-13T02:23:41;12.60;;;12.30;;
79751;SDS011;69234;47.446;21.636;2023-10-13T02:24:30;12.57;;;12.37;;
79751;SDS011;69234;47.446;21.636;2023-10-13T02:25:01;12.33;;;12.20;;
79751;SDS011;69234;47.446;21.636;2023-10-13T02:25:36;12.53;;;12.50;;
79751;SDS011;69234;47.446;21.636;2023-10-13T02:26:13;11.83;;;11.80;;
79751;SDS011;69234;47.446;21.636;2023-10-13T02:27:00;12.33;;;12.23;;
79751;SDS011;69234;47.446;21.636;2023-10-13T02:27:35;12.30;;;12.17;;
79751;SDS011;69234;47.446;21.636;2023-10-13T02:28:11;12.80;;;12.67;;
79751;SDS011;69234;47.446;21.636;2023-10-13T02:28:51;12.63;;;12.53;;
79751;SDS011;69234;47.446;21.636;2023-10-13T02:29:23;12.80;;;12.67;;
79751;SDS011;69234;47.446;21.636;2023-10-13T02:29:55;12.07;;;11.93;;
79751;SDS011;69234;47.446;21.636;2023-10-13T02:30:28;12.03;;;11.83;;
79751;SDS011;69234;47.446;21.636;2023-10-13T02:31:02;12.43;;;12.23;;
79751;SDS011;69234;47.446;21.636;2023-10-13T02:31:35;12.83;;;12.53;;
79751;SDS011;69234;47.446;21.636;2023-10-13T02:32:08;13.27;;;13.07;;
79751;SDS011;69234;47.446;21.636;2023-10-13T02:32:51;13.23;;;13.03;;
79751;SDS011;69234;47.446;21.636;2023-10-13T02:33:23;12.87;;;12.70;;
79751;SDS011;69234;47.446;21.636;2023-10-13T02:34:00;13.73;;;13.50;;
79751;SDS011;69234;47.446;21.636;2023-10-13T02:34:31;13.27;;;13.10;;
79751;SDS011;69234;47.446;21.636;2023-10-13T02:35:02;13.07;;;12.87;;
79751;SDS011;69234;47.446;21.636;2023-10-13T02:35:38;13.77;;;13.63;;
79751;SDS011;69234;47.446;21.636;2023-10-13T02:36:16;11.97;;;11.97;;
79751;SDS011;69234;47.446;21.636;2023-10-13T02:36:52;11.73;;;11.73;;
79751;SDS011;69234;47.446;21.636;2023-10-13T02:37:24;12.63;;;12.63;;
79751;SDS011;69234;47.446;21.636;2023-10-13T02:37:58;12.07;;;12.07;;
79751;SDS011;69234;47.446;21.636;2023-10-13T02:38:29;12.63;;;12.57;;
79751;SDS011;69234;47.446;21.636;2023-10-13T02:39:05;12.43;;;12.30;;
79751;SDS011;69234;47.446;21.636;2023-10-13T02:39:37;12.57;;;12.47;;
79751;SDS011;69234;47.446;21.636;2023-10-13T02:40:11;13.47;;;13.37;;
79751;SDS011;69234;47.446;21.636;2023-10-13T02:40:42;13.00;;;12.97;;
79751;SDS011;69234;47.446;21.636;2023-10-13T02:41:13;14.00;;;13.83;;
79751;SDS011;69234;47.446;21.636;2023-10-13T02:41:56;12.63;;;12.43;;
79751;SDS011;69234;47.446;21.636;2023-10-13T02:42:28;13.10;;;12.87;;
79751;SDS011;69234;47.446;21.636;2023-10-13T02:42:59;12.83;;;12.60;;
79751;SDS011;69234;47.446;21.636;2023-10-13T02:43:32;13.53;;;13.33;;
79751;SDS011;69234;47.446;21.636;2023-10-13T02:44:06;13.97;;;13.73;;
79751;SDS011;69234;47.446;21.636;2023-10-13T02:44:40;13.17;;;13.13;;
79751;SDS011;69234;47.446;21.636;2023-10-13T02:45:14;12.67;;;12.63;;
79751;SDS011;69234;47.446;21.636;2023-10-13T02:45:51;14.13;;;14.07;;
79751;SDS011;69234;47.446;21.636;2023-10-13T02:46:30;12.60;;;12.60;;
79751;SDS011;69234;47.446;21.636;2023-10-13T02:47:00;12.33;;;12.33;;
79751;SDS011;69234;47.446;21.636;2023-10-13T02:47:32;13.13;;;13.00;;
79751;SDS011;69234;47.446;21.636;2023-10-13T02:48:04;14.37;;;14.17;;
79751;SDS011;69234;47.446;21.636;2023-10-13T02:48:48;13.53;;;13.33;;
79751;SDS011;69234;47.446;21.636;2023-10-13T02:49:24;12.40;;;12.17;;
79751;SDS011;69234;47.446;21.636;2023-10-13T02:50:02;13.70;;;13.57;;
79751;SDS011;69234;47.446;21.636;2023-10-13T02:50:33;13.53;;;13.40;;
79751;SDS011;69234;47.446;21.636;2023-10-13T02:51:04;13.50;;;13.43;;
79751;SDS011;69234;47.446;21.636;2023-10-13T02:51:45;12.30;;;12.27;;
79751;SDS011;69234;47.446;21.636;2023-10-13T02:52:17;13.17;;;13.13;;
79751;SDS011;69234;47.446;21.636;2023-10-13T02:52:47;13.50;;;13.50;;
79751;SDS011;69234;47.446;21.636;2023-10-13T02:53:20;13.20;;;13.20;;
79751;SDS011;69234;47.446;21.636;2023-10-13T02:53:51;12.47;;;12.47;;
79751;SDS011;69234;47.446;21.636;2023-10-13T02:54:22;12.07;;;12.07;;
79751;SDS011;69234;47.446;21.636;2023-10-13T02:55:00;12.23;;;12.23;;
79751;SDS011;69234;47.446;21.636;2023-10-13T02:55:31;12.73;;;12.73;;
79751;SDS011;69234;47.446;21.636;2023-10-13T02:56:02;13.20;;;13.20;;
79751;SDS011;69234;47.446;21.636;2023-10-13T02:56:39;13.63;;;13.63;;
79751;SDS011;69234;47.446;21.636;2023-10-13T02:57:27;13.23;;;13.23;;
79751;SDS011;69234;47.446;21.636;2023-10-13T02:57:57;13.03;;;13.03;;
79751;SDS011;69234;47.446;21.636;2023-10-13T02:58:29;13.13;;;13.07;;
79751;SDS011;69234;47.446;21.636;2023-10-13T02:59:08;13.43;;;13.30;;
79751;SDS011;69234;47.446;21.636;2023-10-13T02:59:42;13.77;;;13.67;;
79751;SDS011;69234;47.446;21.636;2023-10-13T03:00:18;13.83;;;13.77;;
79751;SDS011;69234;47.446;21.636;2023-10-13T03:00:53;13.67;;;13.63;;
79751;SDS011;69234;47.446;21.636;2023-10-13T03:01:24;13.73;;;13.73;;
79751;SDS011;69234;47.446;21.636;2023-10-13T03:01:59;13.60;;;13.50;;
79751;SDS011;69234;47.446;21.636;2023-10-13T03:02:47;13.37;;;13.23;;
79751;SDS011;69234;47.446;21.636;2023-10-13T03:03:28;14.00;;;13.93;;
79751;SDS011;69234;47.446;21.636;2023-10-13T03:04:01;14.37;;;14.23;;
79751;SDS011;69234;47.446;21.636;2023-10-13T03:04:33;13.83;;;13.60;;
79751;SDS011;69234;47.446;21.636;2023-10-13T03:05:06;14.03;;;13.77;;
79751;SDS011;69234;47.446;21.636;2023-10-13T03:05:39;13.87;;;13.73;;
79751;SDS011;69234;47.446;21.636;2023-10-13T03:06:13;14.23;;;14.23;;
79751;SDS011;69234;47.446;21.636;2023-10-13T03:06:46;13.10;;;13.10;;
79751;SDS011;69234;47.446;21.636;2023-10-13T03:07:18;13.27;;;13.20;;
79751;SDS011;69234;47.446;21.636;2023-10-13T03:07:59;14.37;;;14.30;;
79751;SDS011;69234;47.446;21.636;2023-10-13T03:08:34;14.13;;;14.10;;
79751;SDS011;69234;47.446;21.636;2023-10-13T03:09:08;13.23;;;13.13;;
79751;SDS011;69234;47.446;21.636;2023-10-13T03:09:50;13.73;;;13.67;;
79751;SDS011;69234;47.446;21.636;2023-10-13T03:10:22;13.70;;;13.67;;
79751;SDS011;69234;47.446;21.636;2023-10-13T03:10:59;12.73;;;12.73;;
79751;SDS011;69234;47.446;21.636;2023-10-13T03:11:31;12.80;;;12.80;;
79751;SDS011;69234;47.446;21.636;2023-10-13T03:12:03;13.17;;;13.17;;
79751;SDS011;69234;47.446;21.636;2023-10-13T03:12:34;14.73;;;14.73;;
79751;SDS011;69234;47.446;21.636;2023-10-13T03:13:09;14.20;;;14.20;;
79751;SDS011;69234;47.446;21.636;2023-10-13T03:13:40;13.83;;;13.83;;
79751;SDS011;69234;47.446;21.636;2023-10-13T03:14:21;13.53;;;13.53;;
79751;SDS011;69234;47.446;21.636;2023-10-13T03:15:03;14.03;;;14.03;;
79751;SDS011;69234;47.446;21.636;2023-10-13T03:15:48;13.83;;;13.83;;
79751;SDS011;69234;47.446;21.636;2023-10-13T03:16:19;13.87;;;13.83;;
79751;SDS011;69234;47.446;21.636;2023-10-13T03:16:56;13.33;;;13.20;;
79751;SDS011;69234;47.446;21.636;2023-10-13T03:17:35;14.57;;;14.27;;
79751;SDS011;69234;47.446;21.636;2023-10-13T03:18:07;14.13;;;13.80;;
79751;SDS011;69234;47.446;21.636;2023-10-13T03:18:37;13.63;;;13.57;;
79751;SDS011;69234;47.446;21.636;2023-10-13T03:19:08;13.97;;;13.90;;
79751;SDS011;69234;47.446;21.636;2023-10-13T03:19:43;14.33;;;14.23;;
79751;SDS011;69234;47.446;21.636;2023-10-13T03:20:22;15.00;;;14.73;;
79751;SDS011;69234;47.446;21.636;2023-10-13T03:20:55;14.27;;;14.20;;